Las Vegas, Nevada
Traffic Map
Current Weather Conditions
Las Vegas, Nevada
Overcast
Overcast
62°
Feels Like: 62°
Wind Chill: 62° Ceiling: 18000
Heat Index: 62° Visibility: 10mi
Dew Point: 39° Wind: 12mph
Humidity: 43% Direction: 150° (SSE)
Pressure: 29.76in Gusts: 22mph
Raw Report DataKLAS 062356Z 15010G19KT 10SM FEW080 SCT110 OVC180 17/04 A2976 RMK AO2 TSE06 SLP067 VCSH S-SW TS DSIPTD 60000 T01670039 10200 20167 50001
Traffic Incident Summary
Active as of:
Severity:
Category:
InformationThere was an issue retrieving the traffic information for this location. Please try a different location or try again shortly.
Advertisements
Track Severe Weather on mobile